createdAt,value
2019-04-07T00:02:27.995Z,7.40
2019-04-07T00:05:10.190Z,7.40
2019-04-07T00:07:33.322Z,7.30
2019-04-07T00:10:04.284Z,7.40
2019-04-07T00:12:35.837Z,7.40
2019-04-07T00:15:10.294Z,7.30
2019-04-07T00:17:41.883Z,7.30
2019-04-07T00:20:13.788Z,7.30
2019-04-07T00:22:45.301Z,7.20
2019-04-07T00:25:16.578Z,7.20
2019-04-07T00:27:50.297Z,7.20
2019-04-07T00:30:21.596Z,7.10
2019-04-07T00:32:55.547Z,7.00
2019-04-07T00:35:32.584Z,7.00
2019-04-07T00:38:02.282Z,6.90
2019-04-07T00:43:27.661Z,6.90
2019-04-07T00:45:59.220Z,6.90
2019-04-07T00:48:29.798Z,7.00
2019-04-07T00:51:01.446Z,6.90
2019-04-07T00:53:32.760Z,6.90
2019-04-07T00:56:05.766Z,6.90
2019-04-07T00:58:40.967Z,6.90
2019-04-07T01:01:12.748Z,6.90
2019-04-07T01:03:43.752Z,6.90
2019-04-07T01:06:16.586Z,6.90
2019-04-07T01:08:46.659Z,6.80
2019-04-07T01:11:21.635Z,6.80
2019-04-07T01:13:54.190Z,6.70
2019-04-07T01:16:26.445Z,6.60
2019-04-07T01:19:00.378Z,6.60
2019-04-07T01:21:31.511Z,6.50
2019-04-07T01:24:04.560Z,6.40
2019-04-07T01:26:37.197Z,6.40
2019-04-07T01:29:10.191Z,6.40
2019-04-07T01:31:40.462Z,6.40
2019-04-07T01:34:11.798Z,6.30
2019-04-07T01:36:46.114Z,6.30
2019-04-07T01:39:16.798Z,6.30
2019-04-07T01:41:51.085Z,6.30
2019-04-07T01:44:23.403Z,6.20
2019-04-07T01:47:13.645Z,6.20
2019-04-07T01:50:05.680Z,6.20
2019-04-07T01:52:38.101Z,6.20
2019-04-07T01:55:19.121Z,6.20
2019-04-07T01:58:10.795Z,6.20
2019-04-07T02:00:42.919Z,6.20
2019-04-07T02:03:21.829Z,6.10
2019-04-07T02:06:02.771Z,6.10
2019-04-07T02:08:42.866Z,6.00
2019-04-07T02:11:15.636Z,6.00
2019-04-07T02:14:00.461Z,5.90
2019-04-07T02:16:38.333Z,6.00
2019-04-07T02:19:11.064Z,5.70
2019-04-07T02:22:00.534Z,5.40
2019-04-07T02:24:36.088Z,5.20
2019-04-07T02:27:26.777Z,5.10
2019-04-07T02:30:19.761Z,5.00
2019-04-07T02:32:58.410Z,5.00
2019-04-07T02:35:37.795Z,4.90
2019-04-07T02:38:16.331Z,4.90
2019-04-07T02:40:56.830Z,5.00
2019-04-07T02:43:27.676Z,5.10
2019-04-07T02:46:14.808Z,5.10
2019-04-07T02:48:49.230Z,5.20
2019-04-07T02:51:38.736Z,5.20
2019-04-07T02:54:10.382Z,5.20
2019-04-07T02:56:46.189Z,5.20
2019-04-07T02:59:29.222Z,5.30
2019-04-07T03:02:11.050Z,5.30
2019-04-07T03:04:51.173Z,5.30
2019-04-07T03:07:43.084Z,5.30
2019-04-07T03:13:39.578Z,5.50
2019-04-07T03:19:16.853Z,5.40
2019-04-07T03:21:55.586Z,5.40
2019-04-07T03:24:28.693Z,5.40
2019-04-07T03:27:06.613Z,5.40
2019-04-07T03:29:42.476Z,5.30
2019-04-07T03:38:12.086Z,5.20
2019-04-07T03:40:49.804Z,5.20
2019-04-07T03:43:41.698Z,5.20
2019-04-07T03:46:17.308Z,5.10
2019-04-07T03:48:53.609Z,5.10
2019-04-07T03:53:59.370Z,5.00
2019-04-07T03:56:48.422Z,4.90
2019-04-07T03:59:28.986Z,4.90
2019-04-07T04:02:19.745Z,4.90
2019-04-07T04:04:52.446Z,4.90
2019-04-07T04:07:31.663Z,4.90
2019-04-07T04:10:05.438Z,4.90
2019-04-07T04:12:46.779Z,4.80
2019-04-07T04:15:22.553Z,4.80
2019-04-07T04:17:55.523Z,4.80
2019-04-07T04:20:28.296Z,4.70
2019-04-07T04:22:59.869Z,4.60
2019-04-07T04:25:32.036Z,4.60
2019-04-07T04:28:04.716Z,4.60
2019-04-07T04:30:37.051Z,4.60
2019-04-07T04:33:08.965Z,4.50
2019-04-07T04:35:42.725Z,4.50
2019-04-07T04:38:12.970Z,4.60
2019-04-07T04:40:46.854Z,4.50
2019-04-07T04:43:18.089Z,4.50
2019-04-07T04:45:48.415Z,4.50
2019-04-07T04:48:19.555Z,4.50
2019-04-07T04:50:53.103Z,4.50
2019-04-07T04:53:25.612Z,4.60
2019-04-07T04:55:56.481Z,4.60
2019-04-07T04:58:28.834Z,4.70
2019-04-07T05:01:00.910Z,4.70
2019-04-07T05:03:33.877Z,4.80
2019-04-07T05:06:04.157Z,4.90
2019-04-07T05:08:46.790Z,5.00
2019-04-07T05:14:03.718Z,5.10
2019-04-07T05:16:36.514Z,5.20
2019-04-07T05:19:09.930Z,5.30
2019-04-07T05:21:44.447Z,5.30
2019-04-07T05:24:18.180Z,5.40
2019-04-07T05:26:51.910Z,5.50
2019-04-07T05:29:23.718Z,5.60
2019-04-07T05:31:55.702Z,5.70
2019-04-07T05:34:27.933Z,5.80
2019-04-07T05:36:58.691Z,6.00
2019-04-07T05:39:29.922Z,6.10
2019-04-07T05:42:02.587Z,6.30
2019-04-07T05:44:35.638Z,6.40
2019-04-07T05:47:12.300Z,6.50
2019-04-07T05:49:41.706Z,6.70
2019-04-07T05:52:16.104Z,6.80
2019-04-07T05:54:49.939Z,6.80
2019-04-07T05:57:21.559Z,7.00
2019-04-07T05:59:53.875Z,7.10
2019-04-07T06:02:25.593Z,7.20
2019-04-07T06:04:59.502Z,7.30
2019-04-07T06:07:33.524Z,7.40
2019-04-07T06:10:09.057Z,7.60
2019-04-07T06:12:46.351Z,7.80
2019-04-07T06:15:20.985Z,7.90
2019-04-07T06:17:55.501Z,8.00
2019-04-07T06:20:25.291Z,8.10
2019-04-07T06:22:57.512Z,8.10
2019-04-07T06:25:33.261Z,8.10
2019-04-07T06:28:05.487Z,8.30
2019-04-07T06:30:37.251Z,8.50
2019-04-07T06:33:13.385Z,8.60
2019-04-07T06:35:47.460Z,8.90
2019-04-07T06:38:30.505Z,9.00
2019-04-07T06:40:56.599Z,9.10
2019-04-07T06:43:27.716Z,9.30
2019-04-07T06:46:11.715Z,9.70
2019-04-07T06:48:45.096Z,9.80
2019-04-07T06:51:17.370Z,9.90
2019-04-07T06:53:59.013Z,10.10
2019-04-07T06:56:48.163Z,10.20
2019-04-07T06:59:21.909Z,10.50
2019-04-07T07:02:02.183Z,10.70
2019-04-07T07:04:35.584Z,10.90
2019-04-07T07:07:19.162Z,11.20
2019-04-07T07:09:57.950Z,11.50
2019-04-07T07:12:34.822Z,11.90
2019-04-07T07:15:24.490Z,12.30
2019-04-07T07:18:05.156Z,12.40
2019-04-07T07:20:40.395Z,12.70
2019-04-07T07:23:15.827Z,12.90
2019-04-07T07:25:47.753Z,13.20
2019-04-07T07:28:21.106Z,13.30
2019-04-07T07:30:53.648Z,13.30
2019-04-07T07:33:26.950Z,13.50
2019-04-07T07:35:59.946Z,13.70
2019-04-07T07:38:32.454Z,13.90
2019-04-07T07:41:03.617Z,14.20
2019-04-07T07:43:36.978Z,14.20
2019-04-07T07:46:08.822Z,14.50
2019-04-07T07:48:40.082Z,14.70
2019-04-07T07:51:14.302Z,14.90
2019-04-07T07:53:47.636Z,15.00
2019-04-07T07:56:17.774Z,15.50
2019-04-07T07:58:51.080Z,15.80
2019-04-07T08:01:24.613Z,16.00
2019-04-07T08:06:29.431Z,16.70
2019-04-07T08:09:11.953Z,16.80
2019-04-07T08:11:35.750Z,16.90
2019-04-07T08:14:14.217Z,16.80
2019-04-07T08:16:42.569Z,17.00
2019-04-07T08:19:13.542Z,17.10
2019-04-07T08:21:50.335Z,17.30
2019-04-07T08:24:19.659Z,17.20
2019-04-07T08:26:56.336Z,17.20
2019-04-07T08:29:25.841Z,17.30
2019-04-07T08:34:37.241Z,17.50
2019-04-07T08:37:15.154Z,17.40
2019-04-07T08:39:46.510Z,17.70
2019-04-07T08:42:21.570Z,18.10
2019-04-07T08:44:53.357Z,18.50
2019-04-07T08:47:23.435Z,18.40
2019-04-07T08:49:57.782Z,18.40
2019-04-07T08:52:28.184Z,18.40
2019-04-07T08:54:59.380Z,18.50
2019-04-07T08:57:32.479Z,18.80
2019-04-07T09:00:05.194Z,18.70
2019-04-07T09:02:39.061Z,18.70
2019-04-07T09:05:16.216Z,18.50
2019-04-07T09:10:25.891Z,17.50
2019-04-07T09:13:01.774Z,17.50
2019-04-07T09:15:33.816Z,17.80
2019-04-07T09:18:18.116Z,18.10
2019-04-07T09:21:10.157Z,18.00
2019-04-07T09:23:52.309Z,17.80
2019-04-07T09:26:26.088Z,18.00
2019-04-07T09:29:19.092Z,17.80
2019-04-07T09:32:08.303Z,17.90
2019-04-07T09:34:50.578Z,17.90
2019-04-07T09:37:27.227Z,17.80
2019-04-07T09:40:18.527Z,17.70
2019-04-07T09:43:01.097Z,17.60
2019-04-07T09:45:38.535Z,17.40
2019-04-07T09:48:13.703Z,17.30
2019-04-07T09:50:44.826Z,17.10
2019-04-07T09:53:38.212Z,17.20
2019-04-07T09:56:20.623Z,17.10
2019-04-07T09:58:58.787Z,17.30
2019-04-07T10:01:30.799Z,17.20
2019-04-07T10:06:43.263Z,17.50
2019-04-07T10:09:24.152Z,17.80
2019-04-07T10:12:12.894Z,18.40
2019-04-07T10:14:55.271Z,18.40
2019-04-07T10:17:31.741Z,18.60
2019-04-07T10:20:38.502Z,18.80
2019-04-07T10:23:20.804Z,18.70
2019-04-07T10:25:58.417Z,18.60
2019-04-07T10:28:40.186Z,18.60
2019-04-07T10:31:49.452Z,18.80
2019-04-07T10:34:24.995Z,18.60
2019-04-07T10:37:02.929Z,18.60
2019-04-07T10:39:55.947Z,18.40
2019-04-07T10:42:40.104Z,18.60
2019-04-07T10:45:12.911Z,18.70
2019-04-07T10:47:50.250Z,18.90
2019-04-07T10:50:38.504Z,19.00
2019-04-07T10:53:17.048Z,19.30
2019-04-07T10:55:52.174Z,19.70
2019-04-07T10:58:43.653Z,20.20
2019-04-07T11:01:36.202Z,20.20
2019-04-07T11:04:24.588Z,20.00
2019-04-07T11:07:17.492Z,19.70
2019-04-07T11:10:11.454Z,19.50
2019-04-07T11:12:43.312Z,19.90
2019-04-07T11:15:18.464Z,20.50
2019-04-07T11:18:01.136Z,21.20
2019-04-07T11:20:35.066Z,21.30
2019-04-07T11:23:15.498Z,21.00
2019-04-07T11:25:53.962Z,21.00
2019-04-07T11:28:43.513Z,21.00
2019-04-07T11:31:23.299Z,21.10
2019-04-07T11:34:05.487Z,21.90
2019-04-07T11:42:15.282Z,23.10
2019-04-07T11:44:51.610Z,23.40
2019-04-07T11:47:31.753Z,23.80
2019-04-07T11:50:12.496Z,23.90
2019-04-07T11:53:00.657Z,23.40
2019-04-07T11:55:38.858Z,23.10
2019-04-07T11:58:20.142Z,22.70
2019-04-07T12:01:05.738Z,22.20
2019-04-07T12:03:57.152Z,21.80
2019-04-07T12:06:29.749Z,21.50
2019-04-07T12:09:06.528Z,21.10
2019-04-07T12:11:46.514Z,20.70
2019-04-07T12:14:18.141Z,21.20
2019-04-07T12:16:58.371Z,22.20
2019-04-07T12:19:32.164Z,22.50
2019-04-07T12:22:10.466Z,22.80
2019-04-07T12:25:00.734Z,23.10
2019-04-07T12:27:33.401Z,23.50
2019-04-07T12:30:06.559Z,24.30
2019-04-07T12:32:55.104Z,25.00
2019-04-07T12:35:38.748Z,25.00
2019-04-07T12:38:28.621Z,24.80
2019-04-07T12:41:15.073Z,24.90
2019-04-07T12:46:24.761Z,26.20
2019-04-07T12:48:59.952Z,26.80
2019-04-07T12:51:32.856Z,27.30
2019-04-07T12:54:22.107Z,28.10
2019-04-07T12:57:10.582Z,28.20
2019-04-07T12:59:51.422Z,28.10
2019-04-07T13:02:42.485Z,28.40
2019-04-07T13:08:00.483Z,27.30
2019-04-07T13:10:34.019Z,27.30
2019-04-07T13:13:30.218Z,27.60
2019-04-07T13:16:07.959Z,28.10
2019-04-07T13:18:56.999Z,28.10
2019-04-07T13:21:44.208Z,27.10
2019-04-07T13:24:28.894Z,26.00
2019-04-07T13:27:06.680Z,25.10
2019-04-07T13:29:51.809Z,24.30
2019-04-07T13:32:38.208Z,24.30
2019-04-07T13:35:04.802Z,24.80
2019-04-07T13:37:38.363Z,25.60
2019-04-07T13:40:15.995Z,25.70
2019-04-07T13:42:50.923Z,25.70
2019-04-07T13:45:44.638Z,26.00
2019-04-07T13:48:20.811Z,26.10
2019-04-07T13:51:02.078Z,26.30
2019-04-07T13:53:41.052Z,26.50
2019-04-07T13:59:04.053Z,26.70
2019-04-07T14:01:38.479Z,26.80
2019-04-07T14:04:21.398Z,26.80
2019-04-07T14:07:02.389Z,26.90
2019-04-07T14:12:35.109Z,27.40
2019-04-07T14:15:11.456Z,27.40
2019-04-07T14:17:58.749Z,26.80
2019-04-07T14:20:40.569Z,26.40
2019-04-07T14:23:16.451Z,25.90
2019-04-07T14:25:59.091Z,26.20
2019-04-07T14:28:47.596Z,26.40
2019-04-07T14:31:35.508Z,26.20
2019-04-07T14:34:11.819Z,24.90
2019-04-07T14:36:45.762Z,24.30
2019-04-07T14:39:39.079Z,24.40
2019-04-07T14:42:11.937Z,24.60
2019-04-07T14:44:56.765Z,24.60
2019-04-07T14:47:32.481Z,24.40
2019-04-07T14:50:11.885Z,24.30
2019-04-07T14:52:49.829Z,24.10
2019-04-07T14:55:36.809Z,23.60
2019-04-07T14:58:13.054Z,23.60
2019-04-07T15:00:47.472Z,23.40
2019-04-07T15:03:19.071Z,23.40
2019-04-07T15:05:56.503Z,23.50
2019-04-07T15:08:42.048Z,23.70
2019-04-07T15:11:15.802Z,23.80
2019-04-07T15:13:47.396Z,23.80
2019-04-07T15:16:21.630Z,23.60
2019-04-07T15:18:53.417Z,23.30
2019-04-07T15:21:28.610Z,23.10
2019-04-07T15:24:05.670Z,22.80
2019-04-07T15:26:40.130Z,22.60
2019-04-07T15:29:13.550Z,22.30
2019-04-07T15:31:49.069Z,22.10
2019-04-07T15:34:19.881Z,22.10
2019-04-07T15:36:51.265Z,22.10
2019-04-07T15:39:28.023Z,22.00
2019-04-07T15:42:00.878Z,21.70
2019-04-07T15:44:39.690Z,21.60
2019-04-07T15:47:12.535Z,21.30
2019-04-07T15:49:43.783Z,21.10
2019-04-07T15:52:14.900Z,21.10
2019-04-07T15:54:46.832Z,21.10
2019-04-07T15:57:21.699Z,21.00
2019-04-07T15:59:54.048Z,20.90
2019-04-07T16:02:27.440Z,20.80
2019-04-07T16:05:02.408Z,20.70
2019-04-07T16:07:33.196Z,20.50
2019-04-07T16:10:04.470Z,20.20
2019-04-07T16:12:44.052Z,20.00
2019-04-07T16:15:16.399Z,19.90
2019-04-07T16:17:47.694Z,19.70
2019-04-07T16:20:23.977Z,19.60
2019-04-07T16:22:56.232Z,19.50
2019-04-07T16:25:28.830Z,19.30
2019-04-07T16:28:00.673Z,19.20
2019-04-07T16:30:30.685Z,19.20
2019-04-07T16:33:06.045Z,19.00
2019-04-07T16:35:39.831Z,18.90
2019-04-07T16:38:14.129Z,18.70
2019-04-07T16:40:50.185Z,18.60
2019-04-07T16:43:24.151Z,18.40
2019-04-07T16:45:56.929Z,18.10
2019-04-07T16:48:28.329Z,17.90
2019-04-07T16:53:36.478Z,17.70
2019-04-07T16:56:07.488Z,17.60
2019-04-07T17:01:12.139Z,17.40
2019-04-07T17:03:46.396Z,17.30
2019-04-07T17:06:17.822Z,17.10
2019-04-07T17:08:51.517Z,17.00
2019-04-07T17:13:47.560Z,16.90
2019-04-07T17:16:24.681Z,16.80
2019-04-07T17:18:56.204Z,16.70
2019-04-07T17:21:29.917Z,16.60
2019-04-07T17:24:01.348Z,16.50
2019-04-07T17:26:38.356Z,16.50
2019-04-07T17:29:11.776Z,16.40
2019-04-07T17:31:44.512Z,16.30
2019-04-07T17:34:17.369Z,16.20
2019-04-07T17:36:55.981Z,16.10
2019-04-07T17:39:28.078Z,16.00
2019-04-07T17:42:03.487Z,15.90
2019-04-07T17:44:52.645Z,15.80
2019-04-07T17:47:29.475Z,15.80
2019-04-07T17:50:03.011Z,15.70
2019-04-07T17:55:43.035Z,15.50
2019-04-07T17:58:17.234Z,15.50
2019-04-07T18:01:09.262Z,15.40
2019-04-07T18:04:00.663Z,15.30
2019-04-07T18:06:32.364Z,15.10
2019-04-07T18:09:12.816Z,15.00
2019-04-07T18:12:06.806Z,14.90
2019-04-07T18:17:28.823Z,14.70
2019-04-07T18:20:08.998Z,14.60
2019-04-07T18:22:43.931Z,14.50
2019-04-07T18:25:17.312Z,14.40
2019-04-07T18:27:50.489Z,14.40
2019-04-07T18:30:24.767Z,14.30
2019-04-07T18:33:09.815Z,14.20
2019-04-07T18:35:42.043Z,14.10
2019-04-07T18:38:14.963Z,14.00
2019-04-07T18:40:55.783Z,13.90
2019-04-07T18:46:28.259Z,13.70
2019-04-07T18:49:10.346Z,13.70
2019-04-07T18:51:49.737Z,13.60
2019-04-07T18:54:38.836Z,13.50
2019-04-07T18:57:27.006Z,13.40
2019-04-07T19:00:04.277Z,13.40
2019-04-07T19:02:50.472Z,13.30
2019-04-07T19:05:23.205Z,13.20
2019-04-07T19:08:10.055Z,13.10
2019-04-07T19:10:55.188Z,13.10
2019-04-07T19:13:33.536Z,13.00
2019-04-07T19:16:10.986Z,12.90
2019-04-07T19:18:43.534Z,12.80
2019-04-07T19:21:31.607Z,12.70
2019-04-07T19:24:20.566Z,12.70
2019-04-07T19:27:31.021Z,12.50
2019-04-07T19:30:15.415Z,12.30
2019-04-07T19:32:56.573Z,12.30
2019-04-07T19:35:29.718Z,12.20
2019-04-07T19:38:04.870Z,12.10
2019-04-07T19:40:38.105Z,12.00
2019-04-07T19:43:22.929Z,11.90
2019-04-07T19:46:02.700Z,11.80
2019-04-07T19:48:52.355Z,11.80
2019-04-07T19:54:16.107Z,11.70
2019-04-07T19:57:03.299Z,11.60
2019-04-07T19:59:44.638Z,11.50
2019-04-07T20:02:32.708Z,11.40
2019-04-07T20:05:05.738Z,11.40
2019-04-07T20:07:48.244Z,11.30
2019-04-07T20:10:22.046Z,11.30
2019-04-07T20:13:06.286Z,11.30
2019-04-07T20:15:45.114Z,11.20
2019-04-07T20:18:26.532Z,11.10
2019-04-07T20:20:57.271Z,11.10
2019-04-07T20:23:31.868Z,11.00
2019-04-07T20:26:05.786Z,10.90
2019-04-07T20:28:45.087Z,10.90
2019-04-07T20:31:27.752Z,10.90
2019-04-07T20:34:06.171Z,10.80
2019-04-07T20:36:44.402Z,10.70
2019-04-07T20:39:35.122Z,10.70
2019-04-07T20:42:18.200Z,10.70
2019-04-07T20:44:59.975Z,10.60
2019-04-07T20:47:38.940Z,10.50
2019-04-07T20:50:16.499Z,10.40
2019-04-07T20:52:54.729Z,10.40
2019-04-07T20:55:37.795Z,10.40
2019-04-07T20:58:18.847Z,10.30
2019-04-07T21:00:57.720Z,10.20
2019-04-07T21:03:40.246Z,10.20
2019-04-07T21:06:25.345Z,10.10
2019-04-07T21:08:56.613Z,10.00
2019-04-07T21:11:31.358Z,9.90
2019-04-07T21:14:07.600Z,9.90
2019-04-07T21:16:43.247Z,9.80
2019-04-07T21:19:30.615Z,9.70
2019-04-07T21:22:05.527Z,9.70
2019-04-07T21:24:50.540Z,9.60
2019-04-07T21:27:20.519Z,9.60
2019-04-07T21:29:53.735Z,9.60
2019-04-07T21:32:48.508Z,9.50
2019-04-07T21:35:23.752Z,9.40
2019-04-07T21:38:06.065Z,9.40
2019-04-07T21:43:40.978Z,9.20
2019-04-07T21:46:13.173Z,9.10
2019-04-07T21:48:48.394Z,9.10
2019-04-07T21:51:26.886Z,9.00
2019-04-07T21:54:17.865Z,9.00
2019-04-07T21:56:53.939Z,8.90
2019-04-07T21:59:35.389Z,8.90
2019-04-07T22:02:23.761Z,8.90
2019-04-07T22:04:57.201Z,8.80
2019-04-07T22:07:37.589Z,8.70
2019-04-07T22:10:11.599Z,8.60
2019-04-07T22:12:42.909Z,8.60
2019-04-07T22:15:15.742Z,8.60
2019-04-07T22:17:45.815Z,8.60
2019-04-07T22:20:21.699Z,8.60
2019-04-07T22:22:57.885Z,8.60
2019-04-07T22:25:36.214Z,8.60
2019-04-07T22:28:07.678Z,8.50
2019-04-07T22:30:41.245Z,8.50
2019-04-07T22:33:12.419Z,8.50
2019-04-07T22:35:44.484Z,8.50
2019-04-07T22:38:19.747Z,8.40
2019-04-07T22:40:50.573Z,8.40
2019-04-07T22:43:24.841Z,8.30
2019-04-07T22:46:07.254Z,8.30
2019-04-07T22:48:31.109Z,8.20
2019-04-07T22:51:09.944Z,8.20
2019-04-07T22:53:38.860Z,8.10
2019-04-07T22:56:09.858Z,8.00
2019-04-07T22:58:42.342Z,8.00
2019-04-07T23:01:12.953Z,7.90
2019-04-07T23:03:44.015Z,7.90
2019-04-07T23:06:16.901Z,7.80
2019-04-07T23:08:49.255Z,7.80
2019-04-07T23:11:19.178Z,7.80
2019-04-07T23:13:50.216Z,7.80
2019-04-07T23:16:21.860Z,7.80
2019-04-07T23:18:54.184Z,7.70
2019-04-07T23:21:25.517Z,7.70
2019-04-07T23:23:58.023Z,7.60
2019-04-07T23:26:28.153Z,7.60
2019-04-07T23:29:00.723Z,7.60
2019-04-07T23:31:34.198Z,7.60
2019-04-07T23:34:06.304Z,7.50
2019-04-07T23:36:38.240Z,7.50
2019-04-07T23:39:10.856Z,7.50
2019-04-07T23:44:12.993Z,7.40
2019-04-07T23:46:44.092Z,7.40
2019-04-07T23:49:15.398Z,7.40
2019-04-07T23:51:46.454Z,7.30
2019-04-07T23:54:18.897Z,7.30
2019-04-07T23:56:54.007Z,7.20
